sensor_id;sensor_type;location;lat;lon;timestamp;pressure;altitude;pressure_sealevel;temperature;humidity
28630;BME280;15817;42.130;24.762;2024-01-15T00:00:17;99517.22;;;-0.57;100.00
28630;BME280;15817;42.130;24.762;2024-01-15T00:02:43;99517.91;;;-0.62;100.00
28630;BME280;15817;42.130;24.762;2024-01-15T00:05:09;99518.84;;;-0.60;100.00
28630;BME280;15817;42.130;24.762;2024-01-15T00:07:35;99523.31;;;-0.56;100.00
28630;BME280;15817;42.130;24.762;2024-01-15T00:10:01;99506.88;;;-0.54;100.00
28630;BME280;15817;42.130;24.762;2024-01-15T00:12:27;99510.59;;;-0.46;100.00
28630;BME280;15817;42.130;24.762;2024-01-15T00:14:53;99495.63;;;-0.51;100.00
28630;BME280;15817;42.130;24.762;2024-01-15T00:17:19;99502.53;;;-0.53;100.00
28630;BME280;15817;42.130;24.762;2024-01-15T00:19:45;99507.84;;;-0.50;100.00
28630;BME280;15817;42.130;24.762;2024-01-15T00:22:10;99504.38;;;-0.51;100.00
28630;BME280;15817;42.130;24.762;2024-01-15T00:24:36;99508.81;;;-0.48;100.00
28630;BME280;15817;42.130;24.762;2024-01-15T00:27:02;99502.63;;;-0.50;100.00
28630;BME280;15817;42.130;24.762;2024-01-15T00:29:28;99519.38;;;-0.44;100.00
28630;BME280;15817;42.130;24.762;2024-01-15T00:31:54;99520.16;;;-0.46;100.00
28630;BME280;15817;42.130;24.762;2024-01-15T00:34:19;99507.03;;;-0.49;100.00
28630;BME280;15817;42.130;24.762;2024-01-15T00:36:45;99499.97;;;-0.52;100.00
28630;BME280;15817;42.130;24.762;2024-01-15T00:39:11;99497.38;;;-0.52;100.00
28630;BME280;15817;42.130;24.762;2024-01-15T00:41:38;99489.56;;;-0.50;100.00
28630;BME280;15817;42.130;24.762;2024-01-15T00:44:03;99493.75;;;-0.55;100.00
28630;BME280;15817;42.130;24.762;2024-01-15T00:46:29;99496.47;;;-0.52;100.00
28630;BME280;15817;42.130;24.762;2024-01-15T00:48:55;99493.81;;;-0.54;100.00
28630;BME280;15817;42.130;24.762;2024-01-15T00:51:21;99494.75;;;-0.52;100.00
28630;BME280;15817;42.130;24.762;2024-01-15T00:53:47;99480.69;;;-0.55;100.00
28630;BME280;15817;42.130;24.762;2024-01-15T00:56:12;99491.25;;;-0.52;100.00
28630;BME280;15817;42.130;24.762;2024-01-15T00:58:38;99476.31;;;-0.56;100.00
28630;BME280;15817;42.130;24.762;2024-01-15T01:01:04;99491.97;;;-0.56;100.00
28630;BME280;15817;42.130;24.762;2024-01-15T01:03:30;99486.72;;;-0.58;100.00
28630;BME280;15817;42.130;24.762;2024-01-15T01:05:56;99493.69;;;-0.57;100.00
28630;BME280;15817;42.130;24.762;2024-01-15T01:08:21;99492.69;;;-0.62;100.00
28630;BME280;15817;42.130;24.762;2024-01-15T01:10:47;99494.06;;;-0.73;100.00
28630;BME280;15817;42.130;24.762;2024-01-15T01:13:13;99493.97;;;-0.76;100.00
28630;BME280;15817;42.130;24.762;2024-01-15T01:15:39;99485.25;;;-0.77;100.00
28630;BME280;15817;42.130;24.762;2024-01-15T01:18:04;99474.59;;;-0.83;100.00
28630;BME280;15817;42.130;24.762;2024-01-15T01:20:30;99485.09;;;-0.81;100.00
28630;BME280;15817;42.130;24.762;2024-01-15T01:22:56;99476.94;;;-0.90;100.00
28630;BME280;15817;42.130;24.762;2024-01-15T01:25:22;99479.66;;;-0.87;100.00
28630;BME280;15817;42.130;24.762;2024-01-15T01:27:47;99477.88;;;-0.88;100.00
28630;BME280;15817;42.130;24.762;2024-01-15T01:30:13;99491.16;;;-0.82;100.00
28630;BME280;15817;42.130;24.762;2024-01-15T01:32:39;99485.06;;;-0.83;100.00
28630;BME280;15817;42.130;24.762;2024-01-15T01:35:05;99486.72;;;-0.85;100.00
28630;BME280;15817;42.130;24.762;2024-01-15T01:37:31;99473.66;;;-0.85;100.00
28630;BME280;15817;42.130;24.762;2024-01-15T01:39:58;99480.78;;;-0.79;100.00
28630;BME280;15817;42.130;24.762;2024-01-15T01:42:24;99475.63;;;-0.78;100.00
28630;BME280;15817;42.130;24.762;2024-01-15T01:44:49;99474.00;;;-0.74;100.00
28630;BME280;15817;42.130;24.762;2024-01-15T01:47:15;99471.59;;;-0.68;100.00
28630;BME280;15817;42.130;24.762;2024-01-15T01:49:41;99469.97;;;-0.64;100.00
28630;BME280;15817;42.130;24.762;2024-01-15T01:52:09;99463.75;;;-0.68;100.00
28630;BME280;15817;42.130;24.762;2024-01-15T01:54:35;99461.91;;;-0.72;100.00
28630;BME280;15817;42.130;24.762;2024-01-15T01:57:03;99462.84;;;-0.70;100.00
28630;BME280;15817;42.130;24.762;2024-01-15T01:59:30;99455.75;;;-0.74;100.00
28630;BME280;15817;42.130;24.762;2024-01-15T02:01:58;99458.13;;;-0.80;100.00
28630;BME280;15817;42.130;24.762;2024-01-15T02:04:26;99448.59;;;-0.80;100.00
28630;BME280;15817;42.130;24.762;2024-01-15T02:06:55;99458.34;;;-0.74;100.00
28630;BME280;15817;42.130;24.762;2024-01-15T02:09:21;99448.63;;;-0.78;100.00
28630;BME280;15817;42.130;24.762;2024-01-15T02:11:47;99454.00;;;-0.74;100.00
28630;BME280;15817;42.130;24.762;2024-01-15T02:14:14;99461.78;;;-0.75;100.00
28630;BME280;15817;42.130;24.762;2024-01-15T02:16:40;99462.69;;;-0.75;100.00
28630;BME280;15817;42.130;24.762;2024-01-15T02:19:06;99455.53;;;-0.80;100.00
28630;BME280;15817;42.130;24.762;2024-01-15T02:21:32;99449.41;;;-0.81;100.00
28630;BME280;15817;42.130;24.762;2024-01-15T02:23:58;99459.91;;;-0.79;100.00
28630;BME280;15817;42.130;24.762;2024-01-15T02:26:25;99453.31;;;-0.95;100.00
28630;BME280;15817;42.130;24.762;2024-01-15T02:28:51;99452.22;;;-1.01;100.00
28630;BME280;15817;42.130;24.762;2024-01-15T02:31:17;99461.00;;;-0.99;100.00
28630;BME280;15817;42.130;24.762;2024-01-15T02:33:43;99458.44;;;-0.98;100.00
28630;BME280;15817;42.130;24.762;2024-01-15T02:36:11;99456.50;;;-1.03;100.00
28630;BME280;15817;42.130;24.762;2024-01-15T02:38:37;99449.16;;;-1.15;100.00
28630;BME280;15817;42.130;24.762;2024-01-15T02:41:03;99463.78;;;-1.20;100.00
28630;BME280;15817;42.130;24.762;2024-01-15T02:43:29;99450.09;;;-1.38;100.00
28630;BME280;15817;42.130;24.762;2024-01-15T02:45:55;99463.53;;;-1.28;100.00
28630;BME280;15817;42.130;24.762;2024-01-15T02:48:21;99462.94;;;-1.19;100.00
28630;BME280;15817;42.130;24.762;2024-01-15T02:50:47;99451.63;;;-1.20;100.00
28630;BME280;15817;42.130;24.762;2024-01-15T02:53:13;99455.84;;;-1.23;100.00
28630;BME280;15817;42.130;24.762;2024-01-15T02:55:38;99446.41;;;-1.20;100.00
28630;BME280;15817;42.130;24.762;2024-01-15T02:58:04;99463.25;;;-1.10;100.00
28630;BME280;15817;42.130;24.762;2024-01-15T03:00:30;99442.31;;;-1.12;100.00
28630;BME280;15817;42.130;24.762;2024-01-15T03:02:56;99445.03;;;-1.08;100.00
28630;BME280;15817;42.130;24.762;2024-01-15T03:05:22;99436.16;;;-1.14;100.00
28630;BME280;15817;42.130;24.762;2024-01-15T03:07:48;99430.09;;;-1.13;100.00
28630;BME280;15817;42.130;24.762;2024-01-15T03:10:13;99444.31;;;-1.04;100.00
28630;BME280;15817;42.130;24.762;2024-01-15T03:12:39;99444.19;;;-1.07;100.00
28630;BME280;15817;42.130;24.762;2024-01-15T03:15:05;99436.22;;;-1.12;100.00
28630;BME280;15817;42.130;24.762;2024-01-15T03:17:31;99431.47;;;-1.24;100.00
28630;BME280;15817;42.130;24.762;2024-01-15T03:19:56;99443.22;;;-1.36;100.00
28630;BME280;15817;42.130;24.762;2024-01-15T03:22:22;99441.50;;;-1.36;100.00
28630;BME280;15817;42.130;24.762;2024-01-15T03:24:48;99430.13;;;-1.38;100.00
28630;BME280;15817;42.130;24.762;2024-01-15T03:27:14;99431.16;;;-1.33;100.00
28630;BME280;15817;42.130;24.762;2024-01-15T03:29:41;99433.13;;;-1.26;100.00
28630;BME280;15817;42.130;24.762;2024-01-15T03:32:07;99439.41;;;-1.21;100.00
28630;BME280;15817;42.130;24.762;2024-01-15T03:34:33;99416.59;;;-1.26;100.00
28630;BME280;15817;42.130;24.762;2024-01-15T03:36:59;99417.53;;;-1.24;100.00
28630;BME280;15817;42.130;24.762;2024-01-15T03:39:25;99418.38;;;-1.25;100.00
28630;BME280;15817;42.130;24.762;2024-01-15T03:41:51;99431.69;;;-1.18;100.00
28630;BME280;15817;42.130;24.762;2024-01-15T03:44:16;99431.63;;;-1.19;100.00
28630;BME280;15817;42.130;24.762;2024-01-15T03:46:42;99439.72;;;-1.12;100.00
28630;BME280;15817;42.130;24.762;2024-01-15T03:49:08;99434.50;;;-1.12;100.00
28630;BME280;15817;42.130;24.762;2024-01-15T03:51:34;99445.50;;;-1.20;100.00
28630;BME280;15817;42.130;24.762;2024-01-15T03:54:00;99449.06;;;-1.18;100.00
28630;BME280;15817;42.130;24.762;2024-01-15T03:56:25;99449.97;;;-1.18;100.00
28630;BME280;15817;42.130;24.762;2024-01-15T03:58:51;99432.59;;;-1.17;100.00
28630;BME280;15817;42.130;24.762;2024-01-15T04:01:17;99436.97;;;-1.16;100.00
28630;BME280;15817;42.130;24.762;2024-01-15T04:03:43;99443.94;;;-1.15;100.00
28630;BME280;15817;42.130;24.762;2024-01-15T04:06:08;99440.47;;;-1.16;100.00
28630;BME280;15817;42.130;24.762;2024-01-15T04:08:34;99437.00;;;-1.15;100.00
28630;BME280;15817;42.130;24.762;2024-01-15T04:11:00;99421.94;;;-1.23;100.00
28630;BME280;15817;42.130;24.762;2024-01-15T04:13:27;99435.19;;;-1.17;100.00
28630;BME280;15817;42.130;24.762;2024-01-15T04:15:53;99432.53;;;-1.19;100.00
28630;BME280;15817;42.130;24.762;2024-01-15T04:18:19;99426.16;;;-1.27;100.00
28630;BME280;15817;42.130;24.762;2024-01-15T04:20:44;99440.94;;;-1.27;100.00
28630;BME280;15817;42.130;24.762;2024-01-15T04:23:10;99434.31;;;-1.43;100.00
28630;BME280;15817;42.130;24.762;2024-01-15T04:25:36;99420.97;;;-1.52;100.00
28630;BME280;15817;42.130;24.762;2024-01-15T04:28:02;99428.66;;;-1.55;100.00
28630;BME280;15817;42.130;24.762;2024-01-15T04:30:28;99421.94;;;-1.49;100.00
28630;BME280;15817;42.130;24.762;2024-01-15T04:32:53;99405.69;;;-1.41;100.00
28630;BME280;15817;42.130;24.762;2024-01-15T04:35:19;99407.63;;;-1.34;100.00
28630;BME280;15817;42.130;24.762;2024-01-15T04:37:45;99398.03;;;-1.35;100.00
28630;BME280;15817;42.130;24.762;2024-01-15T04:40:11;99406.09;;;-1.29;100.00
28630;BME280;15817;42.130;24.762;2024-01-15T04:42:37;99401.59;;;-1.33;100.00
28630;BME280;15817;42.130;24.762;2024-01-15T04:45:03;99407.75;;;-1.31;100.00
28630;BME280;15817;42.130;24.762;2024-01-15T04:47:29;99407.53;;;-1.37;100.00
28630;BME280;15817;42.130;24.762;2024-01-15T04:49:54;99418.78;;;-1.40;100.00
28630;BME280;15817;42.130;24.762;2024-01-15T04:52:20;99405.19;;;-1.55;100.00
28630;BME280;15817;42.130;24.762;2024-01-15T04:54:46;99402.53;;;-1.57;100.00
28630;BME280;15817;42.130;24.762;2024-01-15T04:57:12;99395.59;;;-1.56;100.00
28630;BME280;15817;42.130;24.762;2024-01-15T04:59:37;99409.72;;;-1.50;100.00
28630;BME280;15817;42.130;24.762;2024-01-15T05:02:03;99407.09;;;-1.50;100.00
28630;BME280;15817;42.130;24.762;2024-01-15T05:04:29;99401.94;;;-1.48;100.00
28630;BME280;15817;42.130;24.762;2024-01-15T05:06:55;99392.22;;;-1.54;100.00
28630;BME280;15817;42.130;24.762;2024-01-15T05:09:21;99388.78;;;-1.53;100.00
28630;BME280;15817;42.130;24.762;2024-01-15T05:11:47;99387.00;;;-1.54;100.00
28630;BME280;15817;42.130;24.762;2024-01-15T05:14:12;99374.81;;;-1.55;100.00
28630;BME280;15817;42.130;24.762;2024-01-15T05:16:39;99373.22;;;-1.50;100.00
28630;BME280;15817;42.130;24.762;2024-01-15T05:19:07;99378.59;;;-1.45;100.00
28630;BME280;15817;42.130;24.762;2024-01-15T05:21:33;99369.78;;;-1.49;100.00
28630;BME280;15817;42.130;24.762;2024-01-15T05:23:59;99362.66;;;-1.54;100.00
28630;BME280;15817;42.130;24.762;2024-01-15T05:26:24;99363.91;;;-1.68;100.00
28630;BME280;15817;42.130;24.762;2024-01-15T05:28:50;99368.81;;;-1.77;100.00
28630;BME280;15817;42.130;24.762;2024-01-15T05:31:16;99360.22;;;-1.75;100.00
28630;BME280;15817;42.130;24.762;2024-01-15T05:33:42;99356.06;;;-1.68;100.00
28630;BME280;15817;42.130;24.762;2024-01-15T05:36:08;99355.19;;;-1.69;100.00
28630;BME280;15817;42.130;24.762;2024-01-15T05:38:33;99362.53;;;-1.57;100.00
28630;BME280;15817;42.130;24.762;2024-01-15T05:40:59;99347.69;;;-1.60;100.00
28630;BME280;15817;42.130;24.762;2024-01-15T05:43:25;99355.50;;;-1.60;100.00
28630;BME280;15817;42.130;24.762;2024-01-15T05:45:50;99361.81;;;-1.53;100.00
28630;BME280;15817;42.130;24.762;2024-01-15T05:48:16;99355.44;;;-1.61;100.00
28630;BME280;15817;42.130;24.762;2024-01-15T05:50:42;99360.66;;;-1.61;100.00
28630;BME280;15817;42.130;24.762;2024-01-15T05:53:10;99369.16;;;-1.67;100.00
28630;BME280;15817;42.130;24.762;2024-01-15T05:55:36;99381.13;;;-1.72;100.00
28630;BME280;15817;42.130;24.762;2024-01-15T05:58:04;99388.31;;;-1.66;100.00
28630;BME280;15817;42.130;24.762;2024-01-15T06:00:30;99385.75;;;-1.65;100.00
28630;BME280;15817;42.130;24.762;2024-01-15T06:02:56;99394.53;;;-1.61;100.00
28630;BME280;15817;42.130;24.762;2024-01-15T06:05:22;99391.28;;;-1.56;100.00
28630;BME280;15817;42.130;24.762;2024-01-15T06:07:48;99384.22;;;-1.58;100.00
28630;BME280;15817;42.130;24.762;2024-01-15T06:10:14;99370.22;;;-1.62;100.00
28630;BME280;15817;42.130;24.762;2024-01-15T06:12:39;99353.72;;;-1.61;100.00
28630;BME280;15817;42.130;24.762;2024-01-15T06:15:05;99364.84;;;-1.66;100.00
28630;BME280;15817;42.130;24.762;2024-01-15T06:17:31;99363.00;;;-1.69;100.00
28630;BME280;15817;42.130;24.762;2024-01-15T06:19:57;99375.38;;;-1.63;100.00
28630;BME280;15817;42.130;24.762;2024-01-15T06:22:23;99381.97;;;-1.73;100.00
28630;BME280;15817;42.130;24.762;2024-01-15T06:24:48;99391.44;;;-1.76;100.00
28630;BME280;15817;42.130;24.762;2024-01-15T06:27:14;99402.38;;;-1.87;100.00
28630;BME280;15817;42.130;24.762;2024-01-15T06:29:45;99408.50;;;-1.85;100.00
28630;BME280;15817;42.130;24.762;2024-01-15T06:32:12;99399.06;;;-1.81;100.00
28630;BME280;15817;42.130;24.762;2024-01-15T06:34:37;99381.84;;;-1.77;100.00
28630;BME280;15817;42.130;24.762;2024-01-15T06:37:03;99383.75;;;-1.72;100.00
28630;BME280;15817;42.130;24.762;2024-01-15T06:39:29;99391.81;;;-1.66;100.00
28630;BME280;15817;42.130;24.762;2024-01-15T06:41:55;99392.81;;;-1.61;100.00
28630;BME280;15817;42.130;24.762;2024-01-15T06:44:21;99382.44;;;-1.59;100.00
28630;BME280;15817;42.130;24.762;2024-01-15T06:46:49;99391.44;;;-1.51;100.00
28630;BME280;15817;42.130;24.762;2024-01-15T06:49:17;99384.41;;;-1.54;100.00
28630;BME280;15817;42.130;24.762;2024-01-15T06:51:46;99386.25;;;-1.50;100.00
28630;BME280;15817;42.130;24.762;2024-01-15T06:54:12;99381.94;;;-1.49;100.00
28630;BME280;15817;42.130;24.762;2024-01-15T06:56:39;99382.72;;;-1.52;100.00
28630;BME280;15817;42.130;24.762;2024-01-15T06:59:04;99382.56;;;-1.56;100.00
28630;BME280;15817;42.130;24.762;2024-01-15T07:01:30;99378.97;;;-1.60;100.00
28630;BME280;15817;42.130;24.762;2024-01-15T07:03:59;99385.16;;;-1.56;100.00
28630;BME280;15817;42.130;24.762;2024-01-15T07:06:32;99378.03;;;-1.62;100.00
28630;BME280;15817;42.130;24.762;2024-01-15T07:09:01;99380.91;;;-1.54;100.00
28630;BME280;15817;42.130;24.762;2024-01-15T07:11:26;99381.56;;;-1.60;100.00
28630;BME280;15817;42.130;24.762;2024-01-15T07:13:52;99381.38;;;-1.66;100.00
28630;BME280;15817;42.130;24.762;2024-01-15T07:16:18;99371.66;;;-1.70;100.00
28630;BME280;15817;42.130;24.762;2024-01-15T07:18:44;99371.66;;;-1.70;100.00
28630;BME280;15817;42.130;24.762;2024-01-15T07:21:10;99360.28;;;-1.72;100.00
28630;BME280;15817;42.130;24.762;2024-01-15T07:23:36;99378.75;;;-1.66;100.00
28630;BME280;15817;42.130;24.762;2024-01-15T07:26:02;99374.25;;;-1.70;100.00
28630;BME280;15817;42.130;24.762;2024-01-15T07:28:31;99366.44;;;-1.70;100.00
28630;BME280;15817;42.130;24.762;2024-01-15T07:30:57;99376.88;;;-1.70;100.00
28630;BME280;15817;42.130;24.762;2024-01-15T07:33:23;99370.72;;;-1.72;100.00
28630;BME280;15817;42.130;24.762;2024-01-15T07:35:49;99378.81;;;-1.64;100.00
28630;BME280;15817;42.130;24.762;2024-01-15T07:38:14;99371.59;;;-1.46;100.00
28630;BME280;15817;42.130;24.762;2024-01-15T07:40:40;99370.75;;;-1.20;100.00
28630;BME280;15817;42.130;24.762;2024-01-15T07:43:06;99379.69;;;-1.12;100.00
28630;BME280;15817;42.130;24.762;2024-01-15T07:45:32;99389.41;;;-1.07;100.00
28630;BME280;15817;42.130;24.762;2024-01-15T07:47:58;99389.47;;;-1.06;100.00
28630;BME280;15817;42.130;24.762;2024-01-15T07:50:23;99389.47;;;-1.06;100.00
28630;BME280;15817;42.130;24.762;2024-01-15T07:52:49;99394.97;;;-0.97;100.00
28630;BME280;15817;42.130;24.762;2024-01-15T07:55:17;99393.31;;;-0.95;100.00
28630;BME280;15817;42.130;24.762;2024-01-15T07:57:43;99387.16;;;-0.97;100.00
28630;BME280;15817;42.130;24.762;2024-01-15T08:00:09;99393.19;;;-0.98;100.00
28630;BME280;15817;42.130;24.762;2024-01-15T08:02:36;99393.25;;;-0.96;100.00
28630;BME280;15817;42.130;24.762;2024-01-15T08:05:02;99396.13;;;-0.87;100.00
28630;BME280;15817;42.130;24.762;2024-01-15T08:07:30;99398.84;;;-0.84;100.00
28630;BME280;15817;42.130;24.762;2024-01-15T08:09:59;99417.56;;;-0.70;100.00
28630;BME280;15817;42.130;24.762;2024-01-15T08:12:28;99419.47;;;-0.65;100.00
28630;BME280;15817;42.130;24.762;2024-01-15T08:14:54;99419.63;;;-0.60;100.00
28630;BME280;15817;42.130;24.762;2024-01-15T08:17:25;99422.34;;;-0.56;100.00
28630;BME280;15817;42.130;24.762;2024-01-15T08:19:54;99434.00;;;-0.45;100.00
28630;BME280;15817;42.130;24.762;2024-01-15T08:22:20;99416.44;;;-0.50;100.00
28630;BME280;15817;42.130;24.762;2024-01-15T08:24:46;99418.34;;;-0.45;100.00
28630;BME280;15817;42.130;24.762;2024-01-15T08:27:12;99415.94;;;-0.39;100.00
28630;BME280;15817;42.130;24.762;2024-01-15T08:29:38;99419.66;;;-0.30;100.00
28630;BME280;15817;42.130;24.762;2024-01-15T08:32:04;99419.84;;;-0.24;100.00
28630;BME280;15817;42.130;24.762;2024-01-15T08:34:30;99413.78;;;-0.23;100.00
28630;BME280;15817;42.130;24.762;2024-01-15T08:36:56;99415.72;;;-0.16;100.00
28630;BME280;15817;42.130;24.762;2024-01-15T08:39:22;99417.50;;;-0.15;100.00
28630;BME280;15817;42.130;24.762;2024-01-15T08:41:48;99407.97;;;-0.13;100.00
28630;BME280;15817;42.130;24.762;2024-01-15T08:44:13;99402.91;;;-0.07;100.00
28630;BME280;15817;42.130;24.762;2024-01-15T08:46:39;99392.41;;;-0.09;100.00
28630;BME280;15817;42.130;24.762;2024-01-15T08:49:05;99390.84;;;-0.04;100.00
28630;BME280;15817;42.130;24.762;2024-01-15T08:51:31;99378.75;;;0.02;100.00
28630;BME280;15817;42.130;24.762;2024-01-15T08:53:57;99371.75;;;0.00;100.00
28630;BME280;15817;42.130;24.762;2024-01-15T08:56:23;99372.00;;;0.08;100.00
28630;BME280;15817;42.130;24.762;2024-01-15T08:58:49;99365.97;;;0.11;100.00
28630;BME280;15817;42.130;24.762;2024-01-15T09:01:15;99350.19;;;0.08;100.00
28630;BME280;15817;42.130;24.762;2024-01-15T09:03:41;99343.28;;;0.10;100.00
28630;BME280;15817;42.130;24.762;2024-01-15T09:06:08;99350.38;;;0.15;100.00
28630;BME280;15817;42.130;24.762;2024-01-15T09:08:35;99332.94;;;0.14;100.00
28630;BME280;15817;42.130;24.762;2024-01-15T09:11:02;99344.50;;;0.22;100.00
28630;BME280;15817;42.130;24.762;2024-01-15T09:13:29;99345.34;;;0.21;100.00
28630;BME280;15817;42.130;24.762;2024-01-15T09:15:55;99333.22;;;0.25;100.00
28630;BME280;15817;42.130;24.762;2024-01-15T09:18:21;99344.56;;;0.25;100.00
28630;BME280;15817;42.130;24.762;2024-01-15T09:20:47;99332.38;;;0.26;100.00
28630;BME280;15817;42.130;24.762;2024-01-15T09:23:25;99342.19;;;0.34;100.00
28630;BME280;15817;42.130;24.762;2024-01-15T09:25:54;99337.88;;;0.36;100.00
28630;BME280;15817;42.130;24.762;2024-01-15T09:28:23;99348.50;;;0.43;100.00
28630;BME280;15817;42.130;24.762;2024-01-15T09:30:52;99337.19;;;0.44;100.00
28630;BME280;15817;42.130;24.762;2024-01-15T09:33:17;99328.59;;;0.49;100.00
28630;BME280;15817;42.130;24.762;2024-01-15T09:35:43;99322.44;;;0.47;100.00
28630;BME280;15817;42.130;24.762;2024-01-15T09:38:12;99306.84;;;0.50;100.00
28630;BME280;15817;42.130;24.762;2024-01-15T09:40:38;99309.63;;;0.56;100.00
28630;BME280;15817;42.130;24.762;2024-01-15T09:43:04;99320.38;;;0.68;100.00
28630;BME280;15817;42.130;24.762;2024-01-15T09:45:31;99310.81;;;0.70;100.00
28630;BME280;15817;42.130;24.762;2024-01-15T09:47:57;99297.97;;;0.81;100.00
28630;BME280;15817;42.130;24.762;2024-01-15T09:50:25;99287.59;;;0.84;100.00
28630;BME280;15817;42.130;24.762;2024-01-15T09:52:52;99291.97;;;0.85;100.00
28630;BME280;15817;42.130;24.762;2024-01-15T09:55:18;99295.41;;;0.83;100.00
28630;BME280;15817;42.130;24.762;2024-01-15T09:57:44;99285.91;;;0.86;100.00
28630;BME280;15817;42.130;24.762;2024-01-15T10:00:12;99270.19;;;0.86;100.00
28630;BME280;15817;42.130;24.762;2024-01-15T10:02:38;99261.50;;;0.87;100.00
28630;BME280;15817;42.130;24.762;2024-01-15T10:05:04;99269.47;;;0.92;100.00
28630;BME280;15817;42.130;24.762;2024-01-15T10:07:35;99276.59;;;0.99;100.00
28630;BME280;15817;42.130;24.762;2024-01-15T10:10:02;99269.59;;;0.98;100.00
28630;BME280;15817;42.130;24.762;2024-01-15T10:12:29;99265.25;;;0.98;100.00
28630;BME280;15817;42.130;24.762;2024-01-15T10:14:56;99255.63;;;0.97;100.00
28630;BME280;15817;42.130;24.762;2024-01-15T10:17:22;99247.75;;;0.97;100.00
28630;BME280;15817;42.130;24.762;2024-01-15T10:19:48;99246.16;;;1.04;100.00
28630;BME280;15817;42.130;24.762;2024-01-15T10:22:14;99247.78;;;0.99;100.00
28630;BME280;15817;42.130;24.762;2024-01-15T10:24:44;99242.69;;;1.03;100.00
28630;BME280;15817;42.130;24.762;2024-01-15T10:27:11;99224.44;;;1.08;100.00
28630;BME280;15817;42.130;24.762;2024-01-15T10:29:41;99219.38;;;1.17;100.00
28630;BME280;15817;42.130;24.762;2024-01-15T10:32:08;99227.41;;;1.25;100.00
28630;BME280;15817;42.130;24.762;2024-01-15T10:34:42;99211.66;;;1.23;100.00
28630;BME280;15817;42.130;24.762;2024-01-15T10:37:11;99188.06;;;1.22;100.00
28630;BME280;15817;42.130;24.762;2024-01-15T10:39:39;99175.09;;;1.29;100.00
28630;BME280;15817;42.130;24.762;2024-01-15T10:42:05;99160.47;;;1.40;100.00
28630;BME280;15817;42.130;24.762;2024-01-15T10:44:31;99165.09;;;1.54;100.00
28630;BME280;15817;42.130;24.762;2024-01-15T10:46:57;99153.00;;;1.62;100.00
28630;BME280;15817;42.130;24.762;2024-01-15T10:49:28;99148.78;;;1.68;100.00
28630;BME280;15817;42.130;24.762;2024-01-15T10:51:56;99156.81;;;1.79;100.00
28630;BME280;15817;42.130;24.762;2024-01-15T10:54:23;99156.94;;;1.87;100.00
28630;BME280;15817;42.130;24.762;2024-01-15T10:56:52;99159.69;;;1.93;100.00
28630;BME280;15817;42.130;24.762;2024-01-15T10:59:20;99165.00;;;1.99;100.00
28630;BME280;15817;42.130;24.762;2024-01-15T11:01:52;99160.81;;;2.07;100.00
28630;BME280;15817;42.130;24.762;2024-01-15T11:04:23;99158.22;;;2.11;100.00
28630;BME280;15817;42.130;24.762;2024-01-15T11:06:53;99152.94;;;2.08;100.00
28630;BME280;15817;42.130;24.762;2024-01-15T11:09:19;99144.19;;;2.06;100.00
28630;BME280;15817;42.130;24.762;2024-01-15T11:11:46;99140.78;;;2.13;100.00
28630;BME280;15817;42.130;24.762;2024-01-15T11:14:38;99124.25;;;2.17;100.00
28630;BME280;15817;42.130;24.762;2024-01-15T11:17:04;99120.75;;;2.20;100.00
28630;BME280;15817;42.130;24.762;2024-01-15T11:19:38;99107.63;;;2.17;99.61
28630;BME280;15817;42.130;24.762;2024-01-15T11:22:09;99099.81;;;2.22;99.90
28630;BME280;15817;42.130;24.762;2024-01-15T11:24:41;99091.13;;;2.26;100.00
28630;BME280;15817;42.130;24.762;2024-01-15T11:27:10;99099.09;;;2.33;99.63
28630;BME280;15817;42.130;24.762;2024-01-15T11:29:39;99104.44;;;2.38;99.36
28630;BME280;15817;42.130;24.762;2024-01-15T11:32:10;99099.22;;;2.39;97.83
28630;BME280;15817;42.130;24.762;2024-01-15T11:34:57;99101.97;;;2.50;97.97
28630;BME280;15817;42.130;24.762;2024-01-15T11:37:26;99090.59;;;2.49;97.76
28630;BME280;15817;42.130;24.762;2024-01-15T11:40:17;99079.28;;;2.53;96.67
28630;BME280;15817;42.130;24.762;2024-01-15T11:42:42;99080.16;;;2.55;96.66
28630;BME280;15817;42.130;24.762;2024-01-15T11:45:08;99080.25;;;2.62;95.28
28630;BME280;15817;42.130;24.762;2024-01-15T11:50:21;99069.81;;;2.68;95.50
28630;BME280;15817;42.130;24.762;2024-01-15T11:52:59;99081.31;;;2.74;95.63
28630;BME280;15817;42.130;24.762;2024-01-15T11:55:51;99069.91;;;2.74;94.44
28630;BME280;15817;42.130;24.762;2024-01-15T11:58:18;99071.88;;;2.91;93.84
28630;BME280;15817;42.130;24.762;2024-01-15T12:00:51;99082.44;;;2.96;94.84
28630;BME280;15817;42.130;24.762;2024-01-15T12:03:24;99060.47;;;2.89;95.20
28630;BME280;15817;42.130;24.762;2024-01-15T12:05:53;99042.03;;;2.85;95.42
28630;BME280;15817;42.130;24.762;2024-01-15T12:08:23;99049.94;;;2.86;96.44
28630;BME280;15817;42.130;24.762;2024-01-15T12:10:49;99058.69;;;2.85;97.10
28630;BME280;15817;42.130;24.762;2024-01-15T12:13:15;99065.72;;;2.88;98.08
28630;BME280;15817;42.130;24.762;2024-01-15T12:15:46;99076.22;;;2.86;98.43
28630;BME280;15817;42.130;24.762;2024-01-15T12:18:16;99051.56;;;2.78;99.02
28630;BME280;15817;42.130;24.762;2024-01-15T12:20:43;99055.13;;;2.82;99.37
28630;BME280;15817;42.130;24.762;2024-01-15T12:23:10;99052.50;;;2.82;99.54
28630;BME280;15817;42.130;24.762;2024-01-15T12:25:39;99056.97;;;2.87;99.87
28630;BME280;15817;42.130;24.762;2024-01-15T12:28:05;99041.97;;;2.80;99.19
28630;BME280;15817;42.130;24.762;2024-01-15T12:30:35;99043.75;;;2.81;98.73
28630;BME280;15817;42.130;24.762;2024-01-15T12:33:07;99035.88;;;2.83;99.28
28630;BME280;15817;42.130;24.762;2024-01-15T12:35:39;99030.66;;;2.84;99.93
28630;BME280;15817;42.130;24.762;2024-01-15T12:38:13;99027.16;;;2.84;100.00
28630;BME280;15817;42.130;24.762;2024-01-15T12:40:43;99040.31;;;2.87;100.00
28630;BME280;15817;42.130;24.762;2024-01-15T12:43:11;99037.66;;;2.84;100.00